sensor_id;sensor_type;location;lat;lon;timestamp;P1;durP1;ratioP1;P2;durP2;ratioP2
13406;SDS011;6774;48.208;10.766;2023-12-14T00:01:35;0.43;;;0.30;;
13406;SDS011;6774;48.208;10.766;2023-12-14T00:04:05;0.40;;;0.30;;
13406;SDS011;6774;48.208;10.766;2023-12-14T00:06:33;0.80;;;0.63;;
13406;SDS011;6774;48.208;10.766;2023-12-14T00:09:00;0.27;;;0.20;;
13406;SDS011;6774;48.208;10.766;2023-12-14T00:11:28;2.93;;;0.40;;
13406;SDS011;6774;48.208;10.766;2023-12-14T00:13:56;0.50;;;0.50;;
13406;SDS011;6774;48.208;10.766;2023-12-14T00:16:24;1.50;;;0.57;;
13406;SDS011;6774;48.208;10.766;2023-12-14T00:18:52;0.83;;;0.40;;
13406;SDS011;6774;48.208;10.766;2023-12-14T00:21:21;0.77;;;0.77;;
13406;SDS011;6774;48.208;10.766;2023-12-14T00:23:49;0.57;;;0.40;;
13406;SDS011;6774;48.208;10.766;2023-12-14T00:26:17;0.60;;;0.47;;
13406;SDS011;6774;48.208;10.766;2023-12-14T00:28:44;0.40;;;0.30;;
13406;SDS011;6774;48.208;10.766;2023-12-14T00:31:12;0.60;;;0.60;;
13406;SDS011;6774;48.208;10.766;2023-12-14T00:33:40;0.83;;;0.83;;
13406;SDS011;6774;48.208;10.766;2023-12-14T00:36:08;0.40;;;0.30;;
13406;SDS011;6774;48.208;10.766;2023-12-14T00:38:38;0.40;;;0.40;;
13406;SDS011;6774;48.208;10.766;2023-12-14T00:41:06;0.20;;;0.20;;
13406;SDS011;6774;48.208;10.766;2023-12-14T00:43:34;0.40;;;0.40;;
13406;SDS011;6774;48.208;10.766;2023-12-14T00:46:02;0.50;;;0.50;;
13406;SDS011;6774;48.208;10.766;2023-12-14T00:48:30;0.40;;;0.40;;
13406;SDS011;6774;48.208;10.766;2023-12-14T00:50:58;0.33;;;0.33;;
13406;SDS011;6774;48.208;10.766;2023-12-14T00:53:26;0.50;;;0.20;;
13406;SDS011;6774;48.208;10.766;2023-12-14T00:55:55;1.17;;;1.07;;
13406;SDS011;6774;48.208;10.766;2023-12-14T00:58:23;0.20;;;0.20;;
13406;SDS011;6774;48.208;10.766;2023-12-14T01:00:51;0.30;;;0.30;;
13406;SDS011;6774;48.208;10.766;2023-12-14T01:03:20;0.13;;;0.13;;
13406;SDS011;6774;48.208;10.766;2023-12-14T01:05:49;0.40;;;0.33;;
13406;SDS011;6774;48.208;10.766;2023-12-14T01:08:16;0.60;;;0.60;;
13406;SDS011;6774;48.208;10.766;2023-12-14T01:10:44;0.33;;;0.27;;
13406;SDS011;6774;48.208;10.766;2023-12-14T01:13:13;0.50;;;0.50;;
13406;SDS011;6774;48.208;10.766;2023-12-14T01:15:41;2.00;;;0.67;;
13406;SDS011;6774;48.208;10.766;2023-12-14T01:18:09;0.63;;;0.63;;
13406;SDS011;6774;48.208;10.766;2023-12-14T01:20:39;0.80;;;0.70;;
13406;SDS011;6774;48.208;10.766;2023-12-14T01:23:08;0.60;;;0.60;;
13406;SDS011;6774;48.208;10.766;2023-12-14T01:25:36;0.40;;;0.40;;
13406;SDS011;6774;48.208;10.766;2023-12-14T01:28:04;0.60;;;0.60;;
13406;SDS011;6774;48.208;10.766;2023-12-14T01:30:34;0.30;;;0.30;;
13406;SDS011;6774;48.208;10.766;2023-12-14T01:33:02;0.67;;;0.67;;
13406;SDS011;6774;48.208;10.766;2023-12-14T01:35:30;0.50;;;0.40;;
13406;SDS011;6774;48.208;10.766;2023-12-14T01:37:58;0.70;;;0.70;;
13406;SDS011;6774;48.208;10.766;2023-12-14T01:40:25;0.37;;;0.20;;
13406;SDS011;6774;48.208;10.766;2023-12-14T01:42:53;0.60;;;0.60;;
13406;SDS011;6774;48.208;10.766;2023-12-14T01:45:21;0.77;;;0.77;;
13406;SDS011;6774;48.208;10.766;2023-12-14T01:47:50;0.50;;;0.50;;
13406;SDS011;6774;48.208;10.766;2023-12-14T01:50:18;0.73;;;0.70;;
13406;SDS011;6774;48.208;10.766;2023-12-14T01:52:46;1.40;;;0.30;;
13406;SDS011;6774;48.208;10.766;2023-12-14T01:55:14;0.50;;;0.40;;
13406;SDS011;6774;48.208;10.766;2023-12-14T01:57:42;0.40;;;0.40;;
13406;SDS011;6774;48.208;10.766;2023-12-14T02:00:10;0.30;;;0.30;;
13406;SDS011;6774;48.208;10.766;2023-12-14T02:02:48;1.13;;;1.13;;
13406;SDS011;6774;48.208;10.766;2023-12-14T02:05:17;0.30;;;0.30;;
13406;SDS011;6774;48.208;10.766;2023-12-14T02:07:45;0.80;;;0.53;;
13406;SDS011;6774;48.208;10.766;2023-12-14T02:10:13;0.30;;;0.30;;
13406;SDS011;6774;48.208;10.766;2023-12-14T02:12:41;0.50;;;0.50;;
13406;SDS011;6774;48.208;10.766;2023-12-14T02:15:09;1.57;;;1.47;;
13406;SDS011;6774;48.208;10.766;2023-12-14T02:17:37;0.30;;;0.23;;
13406;SDS011;6774;48.208;10.766;2023-12-14T02:20:05;0.20;;;0.20;;
13406;SDS011;6774;48.208;10.766;2023-12-14T02:22:35;1.07;;;0.97;;
13406;SDS011;6774;48.208;10.766;2023-12-14T02:25:04;0.50;;;0.50;;
13406;SDS011;6774;48.208;10.766;2023-12-14T02:27:32;0.20;;;0.20;;
13406;SDS011;6774;48.208;10.766;2023-12-14T02:30:00;0.40;;;0.20;;
13406;SDS011;6774;48.208;10.766;2023-12-14T02:32:28;0.23;;;0.20;;
13406;SDS011;6774;48.208;10.766;2023-12-14T02:34:56;0.40;;;0.40;;
13406;SDS011;6774;48.208;10.766;2023-12-14T02:37:23;0.37;;;0.37;;
13406;SDS011;6774;48.208;10.766;2023-12-14T02:39:53;0.50;;;0.50;;
13406;SDS011;6774;48.208;10.766;2023-12-14T02:42:20;1.20;;;0.43;;
13406;SDS011;6774;48.208;10.766;2023-12-14T02:44:49;0.60;;;0.50;;
13406;SDS011;6774;48.208;10.766;2023-12-14T02:47:17;0.47;;;0.47;;
13406;SDS011;6774;48.208;10.766;2023-12-14T02:49:45;0.37;;;0.37;;
13406;SDS011;6774;48.208;10.766;2023-12-14T02:52:13;0.73;;;0.73;;
13406;SDS011;6774;48.208;10.766;2023-12-14T02:54:40;0.53;;;0.50;;
13406;SDS011;6774;48.208;10.766;2023-12-14T02:57:10;0.23;;;0.23;;
13406;SDS011;6774;48.208;10.766;2023-12-14T02:59:37;0.70;;;0.70;;
13406;SDS011;6774;48.208;10.766;2023-12-14T03:02:06;0.20;;;0.20;;
13406;SDS011;6774;48.208;10.766;2023-12-14T03:04:34;0.53;;;0.53;;
13406;SDS011;6774;48.208;10.766;2023-12-14T03:07:04;0.20;;;0.20;;
13406;SDS011;6774;48.208;10.766;2023-12-14T03:09:32;0.30;;;0.20;;
13406;SDS011;6774;48.208;10.766;2023-12-14T03:12:01;1.40;;;0.50;;
13406;SDS011;6774;48.208;10.766;2023-12-14T03:14:31;0.60;;;0.40;;
13406;SDS011;6774;48.208;10.766;2023-12-14T03:17:00;0.40;;;0.30;;
13406;SDS011;6774;48.208;10.766;2023-12-14T03:19:28;0.63;;;0.20;;
13406;SDS011;6774;48.208;10.766;2023-12-14T03:21:57;0.40;;;0.40;;
13406;SDS011;6774;48.208;10.766;2023-12-14T03:24:24;0.60;;;0.50;;
13406;SDS011;6774;48.208;10.766;2023-12-14T03:26:52;0.30;;;0.30;;
13406;SDS011;6774;48.208;10.766;2023-12-14T03:29:20;0.30;;;0.30;;
13406;SDS011;6774;48.208;10.766;2023-12-14T03:31:49;0.50;;;0.50;;
13406;SDS011;6774;48.208;10.766;2023-12-14T03:34:17;0.30;;;0.30;;
13406;SDS011;6774;48.208;10.766;2023-12-14T03:36:45;0.70;;;0.70;;
13406;SDS011;6774;48.208;10.766;2023-12-14T03:39:12;0.53;;;0.40;;
13406;SDS011;6774;48.208;10.766;2023-12-14T03:41:41;0.60;;;0.40;;
13406;SDS011;6774;48.208;10.766;2023-12-14T03:44:09;0.40;;;0.27;;
13406;SDS011;6774;48.208;10.766;2023-12-14T03:46:37;2.93;;;0.70;;
13406;SDS011;6774;48.208;10.766;2023-12-14T03:49:06;2.37;;;1.23;;
13406;SDS011;6774;48.208;10.766;2023-12-14T03:51:35;0.40;;;0.40;;
13406;SDS011;6774;48.208;10.766;2023-12-14T03:54:03;0.77;;;0.47;;
13406;SDS011;6774;48.208;10.766;2023-12-14T03:56:31;1.13;;;0.30;;
13406;SDS011;6774;48.208;10.766;2023-12-14T03:58:59;0.70;;;0.50;;
13406;SDS011;6774;48.208;10.766;2023-12-14T04:01:27;0.73;;;0.73;;
13406;SDS011;6774;48.208;10.766;2023-12-14T04:03:54;0.47;;;0.40;;
13406;SDS011;6774;48.208;10.766;2023-12-14T04:06:24;0.43;;;0.43;;
13406;SDS011;6774;48.208;10.766;2023-12-14T04:08:52;0.43;;;0.40;;
13406;SDS011;6774;48.208;10.766;2023-12-14T04:11:21;0.20;;;0.20;;
13406;SDS011;6774;48.208;10.766;2023-12-14T04:13:48;0.73;;;0.30;;
13406;SDS011;6774;48.208;10.766;2023-12-14T04:16:19;0.60;;;0.50;;
13406;SDS011;6774;48.208;10.766;2023-12-14T04:18:51;1.47;;;0.60;;
13406;SDS011;6774;48.208;10.766;2023-12-14T04:21:19;0.30;;;0.20;;
13406;SDS011;6774;48.208;10.766;2023-12-14T04:23:48;1.33;;;0.20;;
13406;SDS011;6774;48.208;10.766;2023-12-14T04:26:16;2.00;;;0.43;;
13406;SDS011;6774;48.208;10.766;2023-12-14T04:28:44;1.00;;;0.30;;
13406;SDS011;6774;48.208;10.766;2023-12-14T04:31:12;0.30;;;0.30;;
13406;SDS011;6774;48.208;10.766;2023-12-14T04:33:40;1.63;;;0.37;;
13406;SDS011;6774;48.208;10.766;2023-12-14T04:36:08;0.20;;;0.20;;
13406;SDS011;6774;48.208;10.766;2023-12-14T04:38:36;0.57;;;0.50;;
13406;SDS011;6774;48.208;10.766;2023-12-14T04:41:06;1.47;;;0.40;;
13406;SDS011;6774;48.208;10.766;2023-12-14T04:43:33;0.37;;;0.27;;
13406;SDS011;6774;48.208;10.766;2023-12-14T04:46:01;0.43;;;0.23;;
13406;SDS011;6774;48.208;10.766;2023-12-14T04:48:29;0.60;;;0.53;;
13406;SDS011;6774;48.208;10.766;2023-12-14T04:50:57;0.40;;;0.37;;
13406;SDS011;6774;48.208;10.766;2023-12-14T04:53:25;0.40;;;0.30;;
13406;SDS011;6774;48.208;10.766;2023-12-14T04:55:53;0.30;;;0.30;;
13406;SDS011;6774;48.208;10.766;2023-12-14T04:58:22;1.37;;;0.70;;
13406;SDS011;6774;48.208;10.766;2023-12-14T05:00:50;0.57;;;0.57;;
13406;SDS011;6774;48.208;10.766;2023-12-14T05:03:18;1.00;;;1.00;;
13406;SDS011;6774;48.208;10.766;2023-12-14T05:05:45;0.80;;;0.60;;
13406;SDS011;6774;48.208;10.766;2023-12-14T05:08:13;2.90;;;1.30;;
13406;SDS011;6774;48.208;10.766;2023-12-14T05:10:41;1.57;;;0.67;;
13406;SDS011;6774;48.208;10.766;2023-12-14T05:13:09;1.00;;;1.00;;
13406;SDS011;6774;48.208;10.766;2023-12-14T05:15:38;1.33;;;0.80;;
13406;SDS011;6774;48.208;10.766;2023-12-14T05:18:06;1.57;;;0.60;;
13406;SDS011;6774;48.208;10.766;2023-12-14T05:20:34;0.60;;;0.60;;
13406;SDS011;6774;48.208;10.766;2023-12-14T05:23:02;0.70;;;0.70;;
13406;SDS011;6774;48.208;10.766;2023-12-14T05:25:30;0.43;;;0.43;;
13406;SDS011;6774;48.208;10.766;2023-12-14T05:27:58;1.30;;;1.20;;
13406;SDS011;6774;48.208;10.766;2023-12-14T05:30:26;0.50;;;0.47;;
13406;SDS011;6774;48.208;10.766;2023-12-14T05:32:55;1.87;;;0.93;;
13406;SDS011;6774;48.208;10.766;2023-12-14T05:35:23;0.93;;;0.80;;
13406;SDS011;6774;48.208;10.766;2023-12-14T05:37:51;0.37;;;0.33;;
13406;SDS011;6774;48.208;10.766;2023-12-14T05:40:19;1.60;;;1.07;;
13406;SDS011;6774;48.208;10.766;2023-12-14T05:42:47;0.53;;;0.53;;
13406;SDS011;6774;48.208;10.766;2023-12-14T05:45:15;1.80;;;0.97;;
13406;SDS011;6774;48.208;10.766;2023-12-14T05:47:45;1.70;;;1.57;;
13406;SDS011;6774;48.208;10.766;2023-12-14T05:50:14;2.03;;;1.83;;
13406;SDS011;6774;48.208;10.766;2023-12-14T05:52:42;1.67;;;1.50;;
13406;SDS011;6774;48.208;10.766;2023-12-14T05:55:12;2.10;;;2.00;;
13406;SDS011;6774;48.208;10.766;2023-12-14T05:57:39;2.10;;;2.00;;
13406;SDS011;6774;48.208;10.766;2023-12-14T06:00:08;2.27;;;2.17;;
13406;SDS011;6774;48.208;10.766;2023-12-14T06:02:36;5.53;;;5.13;;
13406;SDS011;6774;48.208;10.766;2023-12-14T06:05:05;3.10;;;2.77;;
13406;SDS011;6774;48.208;10.766;2023-12-14T06:07:36;2.50;;;2.40;;
13406;SDS011;6774;48.208;10.766;2023-12-14T06:10:04;3.53;;;3.33;;
13406;SDS011;6774;48.208;10.766;2023-12-14T06:12:33;4.83;;;4.17;;
13406;SDS011;6774;48.208;10.766;2023-12-14T06:15:01;3.43;;;3.23;;
13406;SDS011;6774;48.208;10.766;2023-12-14T06:17:29;3.50;;;3.30;;
13406;SDS011;6774;48.208;10.766;2023-12-14T06:19:58;4.33;;;3.40;;
13406;SDS011;6774;48.208;10.766;2023-12-14T06:22:26;3.07;;;2.73;;
13406;SDS011;6774;48.208;10.766;2023-12-14T06:24:55;3.57;;;3.37;;
13406;SDS011;6774;48.208;10.766;2023-12-14T06:27:23;4.37;;;2.83;;
13406;SDS011;6774;48.208;10.766;2023-12-14T06:29:52;2.70;;;2.47;;
13406;SDS011;6774;48.208;10.766;2023-12-14T06:32:20;4.50;;;3.77;;
13406;SDS011;6774;48.208;10.766;2023-12-14T06:34:48;6.30;;;4.03;;
13406;SDS011;6774;48.208;10.766;2023-12-14T06:37:16;5.03;;;4.63;;
13406;SDS011;6774;48.208;10.766;2023-12-14T06:39:44;4.77;;;4.40;;
13406;SDS011;6774;48.208;10.766;2023-12-14T06:42:14;5.23;;;4.20;;
13406;SDS011;6774;48.208;10.766;2023-12-14T06:44:41;4.40;;;4.10;;
13406;SDS011;6774;48.208;10.766;2023-12-14T06:47:09;5.20;;;4.80;;
13406;SDS011;6774;48.208;10.766;2023-12-14T06:49:37;6.17;;;5.77;;
13406;SDS011;6774;48.208;10.766;2023-12-14T06:52:06;6.43;;;5.83;;
13406;SDS011;6774;48.208;10.766;2023-12-14T06:54:35;5.73;;;5.27;;
13406;SDS011;6774;48.208;10.766;2023-12-14T06:57:03;6.00;;;5.50;;
13406;SDS011;6774;48.208;10.766;2023-12-14T06:59:32;7.80;;;6.10;;
13406;SDS011;6774;48.208;10.766;2023-12-14T07:02:00;6.77;;;6.17;;
13406;SDS011;6774;48.208;10.766;2023-12-14T07:04:28;7.20;;;5.57;;
13406;SDS011;6774;48.208;10.766;2023-12-14T07:06:56;6.10;;;5.70;;
13406;SDS011;6774;48.208;10.766;2023-12-14T07:09:24;9.10;;;6.20;;
13406;SDS011;6774;48.208;10.766;2023-12-14T07:11:52;6.83;;;6.33;;
13406;SDS011;6774;48.208;10.766;2023-12-14T07:14:20;5.60;;;5.10;;
13406;SDS011;6774;48.208;10.766;2023-12-14T07:16:52;5.50;;;5.20;;
13406;SDS011;6774;48.208;10.766;2023-12-14T07:19:20;6.10;;;5.50;;
13406;SDS011;6774;48.208;10.766;2023-12-14T07:21:48;4.80;;;4.50;;
13406;SDS011;6774;48.208;10.766;2023-12-14T07:24:16;7.60;;;6.03;;
13406;SDS011;6774;48.208;10.766;2023-12-14T07:26:44;5.23;;;4.93;;
13406;SDS011;6774;48.208;10.766;2023-12-14T07:29:12;5.23;;;4.87;;
13406;SDS011;6774;48.208;10.766;2023-12-14T07:31:40;5.23;;;4.50;;
13406;SDS011;6774;48.208;10.766;2023-12-14T07:34:09;5.90;;;5.50;;
13406;SDS011;6774;48.208;10.766;2023-12-14T07:36:37;4.37;;;4.07;;
13406;SDS011;6774;48.208;10.766;2023-12-14T07:39:04;4.77;;;4.47;;
13406;SDS011;6774;48.208;10.766;2023-12-14T07:41:32;4.90;;;4.60;;
13406;SDS011;6774;48.208;10.766;2023-12-14T07:44:01;5.50;;;5.10;;
13406;SDS011;6774;48.208;10.766;2023-12-14T07:46:32;4.93;;;4.53;;
13406;SDS011;6774;48.208;10.766;2023-12-14T07:49:01;7.37;;;4.87;;
13406;SDS011;6774;48.208;10.766;2023-12-14T07:51:30;4.43;;;4.13;;
13406;SDS011;6774;48.208;10.766;2023-12-14T07:53:58;4.20;;;3.90;;
13406;SDS011;6774;48.208;10.766;2023-12-14T07:56:26;5.00;;;4.70;;
13406;SDS011;6774;48.208;10.766;2023-12-14T07:58:54;5.40;;;5.10;;
13406;SDS011;6774;48.208;10.766;2023-12-14T08:01:22;5.00;;;4.60;;
13406;SDS011;6774;48.208;10.766;2023-12-14T08:03:50;4.83;;;4.53;;
13406;SDS011;6774;48.208;10.766;2023-12-14T08:06:18;4.13;;;3.83;;
13406;SDS011;6774;48.208;10.766;2023-12-14T08:08:47;4.27;;;3.97;;
13406;SDS011;6774;48.208;10.766;2023-12-14T08:11:15;4.60;;;4.27;;
13406;SDS011;6774;48.208;10.766;2023-12-14T08:13:43;3.63;;;3.43;;
13406;SDS011;6774;48.208;10.766;2023-12-14T08:16:10;3.67;;;3.47;;
13406;SDS011;6774;48.208;10.766;2023-12-14T08:18:38;4.43;;;4.03;;
13406;SDS011;6774;48.208;10.766;2023-12-14T08:21:07;4.77;;;4.47;;
13406;SDS011;6774;48.208;10.766;2023-12-14T08:23:38;3.27;;;3.10;;
13406;SDS011;6774;48.208;10.766;2023-12-14T08:26:07;3.87;;;3.57;;
13406;SDS011;6774;48.208;10.766;2023-12-14T08:28:36;5.30;;;5.00;;
13406;SDS011;6774;48.208;10.766;2023-12-14T08:31:04;4.87;;;4.57;;
13406;SDS011;6774;48.208;10.766;2023-12-14T08:33:32;4.57;;;4.17;;
13406;SDS011;6774;48.208;10.766;2023-12-14T08:36:00;5.03;;;4.73;;
13406;SDS011;6774;48.208;10.766;2023-12-14T08:38:28;6.27;;;5.77;;
13406;SDS011;6774;48.208;10.766;2023-12-14T08:40:56;4.40;;;4.10;;
13406;SDS011;6774;48.208;10.766;2023-12-14T08:43:25;4.37;;;4.07;;
13406;SDS011;6774;48.208;10.766;2023-12-14T08:45:53;6.37;;;5.87;;
13406;SDS011;6774;48.208;10.766;2023-12-14T08:48:21;5.67;;;5.17;;
13406;SDS011;6774;48.208;10.766;2023-12-14T08:50:48;5.73;;;5.20;;
13406;SDS011;6774;48.208;10.766;2023-12-14T08:53:16;6.03;;;5.53;;
13406;SDS011;6774;48.208;10.766;2023-12-14T08:55:44;7.00;;;5.67;;
13406;SDS011;6774;48.208;10.766;2023-12-14T08:58:12;5.93;;;5.53;;
13406;SDS011;6774;48.208;10.766;2023-12-14T09:00:42;5.87;;;5.30;;
13406;SDS011;6774;48.208;10.766;2023-12-14T09:03:09;5.17;;;4.77;;
13406;SDS011;6774;48.208;10.766;2023-12-14T09:05:37;5.43;;;4.93;;
13406;SDS011;6774;48.208;10.766;2023-12-14T09:08:08;5.03;;;4.73;;
13406;SDS011;6774;48.208;10.766;2023-12-14T09:10:36;5.03;;;4.63;;
13406;SDS011;6774;48.208;10.766;2023-12-14T09:13:04;5.30;;;4.80;;
13406;SDS011;6774;48.208;10.766;2023-12-14T09:15:32;4.97;;;4.57;;
13406;SDS011;6774;48.208;10.766;2023-12-14T09:18:03;6.70;;;6.17;;
13406;SDS011;6774;48.208;10.766;2023-12-14T09:20:32;3.33;;;3.13;;
13406;SDS011;6774;48.208;10.766;2023-12-14T09:23:01;3.67;;;3.47;;
13406;SDS011;6774;48.208;10.766;2023-12-14T09:25:29;2.20;;;2.10;;
13406;SDS011;6774;48.208;10.766;2023-12-14T09:27:57;4.07;;;2.23;;
13406;SDS011;6774;48.208;10.766;2023-12-14T09:30:25;2.70;;;2.50;;
13406;SDS011;6774;48.208;10.766;2023-12-14T09:32:53;1.53;;;1.20;;
13406;SDS011;6774;48.208;10.766;2023-12-14T09:35:22;1.67;;;1.57;;
13406;SDS011;6774;48.208;10.766;2023-12-14T09:37:50;0.83;;;0.83;;
13406;SDS011;6774;48.208;10.766;2023-12-14T09:40:18;1.00;;;0.90;;
13406;SDS011;6774;48.208;10.766;2023-12-14T09:42:48;1.47;;;1.30;;
13406;SDS011;6774;48.208;10.766;2023-12-14T09:45:16;1.13;;;1.03;;
13406;SDS011;6774;48.208;10.766;2023-12-14T09:47:44;0.50;;;0.50;;
13406;SDS011;6774;48.208;10.766;2023-12-14T09:50:13;0.30;;;0.30;;
13406;SDS011;6774;48.208;10.766;2023-12-14T09:52:44;0.40;;;0.40;;
13406;SDS011;6774;48.208;10.766;2023-12-14T09:55:13;0.20;;;0.20;;
13406;SDS011;6774;48.208;10.766;2023-12-14T09:57:42;0.43;;;0.43;;
13406;SDS011;6774;48.208;10.766;2023-12-14T10:00:10;0.60;;;0.60;;
13406;SDS011;6774;48.208;10.766;2023-12-14T10:02:40;0.20;;;0.20;;
13406;SDS011;6774;48.208;10.766;2023-12-14T10:05:09;1.10;;;0.40;;
13406;SDS011;6774;48.208;10.766;2023-12-14T10:07:38;0.50;;;0.50;;
13406;SDS011;6774;48.208;10.766;2023-12-14T10:10:11;0.73;;;0.30;;
13406;SDS011;6774;48.208;10.766;2023-12-14T10:12:50;0.40;;;0.20;;
13406;SDS011;6774;48.208;10.766;2023-12-14T10:15:19;1.80;;;1.37;;
13406;SDS011;6774;48.208;10.766;2023-12-14T10:17:50;0.37;;;0.27;;
13406;SDS011;6774;48.208;10.766;2023-12-14T10:20:20;0.30;;;0.20;;
13406;SDS011;6774;48.208;10.766;2023-12-14T10:22:49;2.10;;;0.43;;
13406;SDS011;6774;48.208;10.766;2023-12-14T10:25:19;0.53;;;0.33;;
13406;SDS011;6774;48.208;10.766;2023-12-14T10:27:48;0.30;;;0.30;;
13406;SDS011;6774;48.208;10.766;2023-12-14T10:30:36;2.13;;;0.70;;
13406;SDS011;6774;48.208;10.766;2023-12-14T10:33:04;0.27;;;0.20;;
13406;SDS011;6774;48.208;10.766;2023-12-14T10:35:32;0.50;;;0.30;;
13406;SDS011;6774;48.208;10.766;2023-12-14T10:38:01;0.23;;;0.23;;
13406;SDS011;6774;48.208;10.766;2023-12-14T10:40:31;0.80;;;0.73;;
13406;SDS011;6774;48.208;10.766;2023-12-14T10:43:00;2.83;;;0.30;;
13406;SDS011;6774;48.208;10.766;2023-12-14T10:45:29;2.07;;;0.47;;
13406;SDS011;6774;48.208;10.766;2023-12-14T10:47:59;0.70;;;0.60;;
13406;SDS011;6774;48.208;10.766;2023-12-14T10:50:30;4.37;;;1.37;;
13406;SDS011;6774;48.208;10.766;2023-12-14T10:52:58;0.77;;;0.77;;
13406;SDS011;6774;48.208;10.766;2023-12-14T10:55:28;0.70;;;0.70;;
13406;SDS011;6774;48.208;10.766;2023-12-14T10:58:04;0.30;;;0.30;;
13406;SDS011;6774;48.208;10.766;2023-12-14T11:00:31;0.73;;;0.33;;
13406;SDS011;6774;48.208;10.766;2023-12-14T11:02:59;0.17;;;0.17;;
13406;SDS011;6774;48.208;10.766;2023-12-14T11:05:27;0.80;;;0.30;;
13406;SDS011;6774;48.208;10.766;2023-12-14T11:08:00;0.77;;;0.30;;
13406;SDS011;6774;48.208;10.766;2023-12-14T11:10:37;0.20;;;0.17;;
13406;SDS011;6774;48.208;10.766;2023-12-14T11:13:06;0.20;;;0.20;;
13406;SDS011;6774;48.208;10.766;2023-12-14T11:15:38;0.87;;;0.50;;
13406;SDS011;6774;48.208;10.766;2023-12-14T11:18:19;0.40;;;0.40;;
13406;SDS011;6774;48.208;10.766;2023-12-14T11:20:49;0.30;;;0.20;;
13406;SDS011;6774;48.208;10.766;2023-12-14T11:23:25;0.40;;;0.40;;
13406;SDS011;6774;48.208;10.766;2023-12-14T11:26:00;0.20;;;0.20;;
13406;SDS011;6774;48.208;10.766;2023-12-14T11:28:31;0.40;;;0.40;;
13406;SDS011;6774;48.208;10.766;2023-12-14T11:31:00;0.80;;;0.60;;
13406;SDS011;6774;48.208;10.766;2023-12-14T11:33:29;1.27;;;1.17;;
13406;SDS011;6774;48.208;10.766;2023-12-14T11:35:59;0.60;;;0.43;;
13406;SDS011;6774;48.208;10.766;2023-12-14T11:38:29;1.13;;;1.03;;
13406;SDS011;6774;48.208;10.766;2023-12-14T11:40:57;0.40;;;0.30;;
13406;SDS011;6774;48.208;10.766;2023-12-14T11:43:27;0.93;;;0.70;;
13406;SDS011;6774;48.208;10.766;2023-12-14T11:45:55;0.67;;;0.63;;
13406;SDS011;6774;48.208;10.766;2023-12-14T11:48:23;0.53;;;0.53;;
13406;SDS011;6774;48.208;10.766;2023-12-14T11:50:51;1.20;;;1.10;;
13406;SDS011;6774;48.208;10.766;2023-12-14T11:53:20;0.80;;;0.80;;
13406;SDS011;6774;48.208;10.766;2023-12-14T11:55:48;3.33;;;0.60;;
13406;SDS011;6774;48.208;10.766;2023-12-14T11:58:16;1.20;;;1.10;;
13406;SDS011;6774;48.208;10.766;2023-12-14T12:00:45;2.10;;;0.70;;
13406;SDS011;6774;48.208;10.766;2023-12-14T12:03:14;1.00;;;0.70;;
13406;SDS011;6774;48.208;10.766;2023-12-14T12:05:44;1.13;;;1.03;;
13406;SDS011;6774;48.208;10.766;2023-12-14T12:08:14;1.70;;;1.60;;
13406;SDS011;6774;48.208;10.766;2023-12-14T12:10:43;1.30;;;1.20;;
13406;SDS011;6774;48.208;10.766;2023-12-14T12:13:12;2.00;;;1.90;;
13406;SDS011;6774;48.208;10.766;2023-12-14T12:15:42;2.17;;;1.70;;
13406;SDS011;6774;48.208;10.766;2023-12-14T12:18:11;1.03;;;0.93;;
13406;SDS011;6774;48.208;10.766;2023-12-14T12:20:40;1.60;;;1.50;;
13406;SDS011;6774;48.208;10.766;2023-12-14T12:23:08;1.37;;;1.27;;
13406;SDS011;6774;48.208;10.766;2023-12-14T12:25:37;1.43;;;1.43;;
13406;SDS011;6774;48.208;10.766;2023-12-14T12:28:05;1.77;;;1.67;;
13406;SDS011;6774;48.208;10.766;2023-12-14T12:30:32;0.70;;;0.70;;
13406;SDS011;6774;48.208;10.766;2023-12-14T12:33:04;1.60;;;1.50;;
13406;SDS011;6774;48.208;10.766;2023-12-14T12:38:27;1.13;;;1.13;;
13406;SDS011;6774;48.208;10.766;2023-12-14T12:40:54;2.07;;;1.87;;
13406;SDS011;6774;48.208;10.766;2023-12-14T12:43:23;1.53;;;1.43;;
13406;SDS011;6774;48.208;10.766;2023-12-14T12:45:50;1.07;;;0.90;;
13406;SDS011;6774;48.208;10.766;2023-12-14T12:48:18;2.00;;;1.10;;
13406;SDS011;6774;48.208;10.766;2023-12-14T12:50:50;1.97;;;1.87;;
13406;SDS011;6774;48.208;10.766;2023-12-14T12:53:19;1.57;;;1.47;;
13406;SDS011;6774;48.208;10.766;2023-12-14T12:55:46;1.23;;;1.13;;
13406;SDS011;6774;48.208;10.766;2023-12-14T12:58:14;1.53;;;1.43;;
13406;SDS011;6774;48.208;10.766;2023-12-14T13:00:42;1.60;;;1.50;;
13406;SDS011;6774;48.208;10.766;2023-12-14T13:03:10;1.47;;;1.37;;
13406;SDS011;6774;48.208;10.766;2023-12-14T13:05:39;2.00;;;1.47;;
13406;SDS011;6774;48.208;10.766;2023-12-14T13:08:07;2.30;;;1.60;;
13406;SDS011;6774;48.208;10.766;2023-12-14T13:10:36;1.70;;;1.60;;
13406;SDS011;6774;48.208;10.766;2023-12-14T13:13:05;1.50;;;1.40;;
13406;SDS011;6774;48.208;10.766;2023-12-14T13:15:34;2.30;;;1.70;;
13406;SDS011;6774;48.208;10.766;2023-12-14T13:18:05;2.30;;;2.20;;
13406;SDS011;6774;48.208;10.766;2023-12-14T13:20:33;1.53;;;1.43;;
13406;SDS011;6774;48.208;10.766;2023-12-14T13:23:00;1.23;;;1.13;;
13406;SDS011;6774;48.208;10.766;2023-12-14T13:25:28;1.43;;;1.33;;
13406;SDS011;6774;48.208;10.766;2023-12-14T13:27:57;1.30;;;1.20;;
13406;SDS011;6774;48.208;10.766;2023-12-14T13:30:25;1.53;;;1.27;;
13406;SDS011;6774;48.208;10.766;2023-12-14T13:32:53;1.70;;;1.60;;
13406;SDS011;6774;48.208;10.766;2023-12-14T13:35:21;1.73;;;1.20;;
13406;SDS011;6774;48.208;10.766;2023-12-14T13:37:51;0.97;;;0.97;;
13406;SDS011;6774;48.208;10.766;2023-12-14T13:40:21;1.27;;;1.20;;
13406;SDS011;6774;48.208;10.766;2023-12-14T13:42:49;1.60;;;1.50;;
13406;SDS011;6774;48.208;10.766;2023-12-14T13:45:33;0.80;;;0.80;;
13406;SDS011;6774;48.208;10.766;2023-12-14T13:48:01;1.20;;;0.90;;
13406;SDS011;6774;48.208;10.766;2023-12-14T13:50:29;0.60;;;0.60;;
13406;SDS011;6774;48.208;10.766;2023-12-14T13:52:56;1.00;;;0.83;;
13406;SDS011;6774;48.208;10.766;2023-12-14T13:55:24;0.70;;;0.70;;
13406;SDS011;6774;48.208;10.766;2023-12-14T13:57:52;0.63;;;0.60;;
13406;SDS011;6774;48.208;10.766;2023-12-14T14:00:24;0.83;;;0.80;;
13406;SDS011;6774;48.208;10.766;2023-12-14T14:02:53;0.83;;;0.83;;
13406;SDS011;6774;48.208;10.766;2023-12-14T14:05:22;0.43;;;0.33;;
13406;SDS011;6774;48.208;10.766;2023-12-14T14:07:50;0.40;;;0.40;;
13406;SDS011;6774;48.208;10.766;2023-12-14T14:10:18;3.17;;;0.43;;
13406;SDS011;6774;48.208;10.766;2023-12-14T14:12:46;0.43;;;0.43;;
13406;SDS011;6774;48.208;10.766;2023-12-14T14:15:14;0.70;;;0.33;;
13406;SDS011;6774;48.208;10.766;2023-12-14T14:17:42;2.93;;;0.47;;
13406;SDS011;6774;48.208;10.766;2023-12-14T14:20:11;1.17;;;1.07;;
13406;SDS011;6774;48.208;10.766;2023-12-14T14:22:39;1.17;;;0.30;;
13406;SDS011;6774;48.208;10.766;2023-12-14T14:25:07;0.70;;;0.57;;
13406;SDS011;6774;48.208;10.766;2023-12-14T14:27:35;0.20;;;0.20;;
13406;SDS011;6774;48.208;10.766;2023-12-14T14:30:03;1.80;;;0.60;;
13406;SDS011;6774;48.208;10.766;2023-12-14T14:32:32;1.27;;;0.60;;
13406;SDS011;6774;48.208;10.766;2023-12-14T14:35:02;0.43;;;0.30;;
13406;SDS011;6774;48.208;10.766;2023-12-14T14:37:32;1.37;;;1.17;;
13406;SDS011;6774;48.208;10.766;2023-12-14T14:40:01;1.00;;;1.00;;
13406;SDS011;6774;48.208;10.766;2023-12-14T14:42:30;2.53;;;0.63;;
13406;SDS011;6774;48.208;10.766;2023-12-14T14:44:58;1.07;;;0.40;;
13406;SDS011;6774;48.208;10.766;2023-12-14T14:47:26;0.70;;;0.67;;
13406;SDS011;6774;48.208;10.766;2023-12-14T14:49:54;0.67;;;0.53;;
13406;SDS011;6774;48.208;10.766;2023-12-14T14:52:29;0.40;;;0.40;;
13406;SDS011;6774;48.208;10.766;2023-12-14T14:54:59;1.47;;;1.37;;
13406;SDS011;6774;48.208;10.766;2023-12-14T14:57:27;2.17;;;1.00;;
13406;SDS011;6774;48.208;10.766;2023-12-14T14:59:55;1.07;;;0.40;;